createdAt,value
2019-04-28T00:03:52.002Z,98012.23
2019-04-28T00:07:56.906Z,98009.80
2019-04-28T00:12:01.880Z,98002.56
2019-04-28T00:16:07.714Z,98004.20
2019-04-28T00:20:31.022Z,98003.39
2019-04-28T00:24:46.737Z,98004.69
2019-04-28T00:28:51.620Z,98007.30
2019-04-28T00:32:56.517Z,98005.82
2019-04-28T00:37:03.040Z,98005.75
2019-04-28T00:41:07.919Z,98000.50
2019-04-28T00:45:14.335Z,98007.91
2019-04-28T00:49:21.501Z,98004.11
2019-04-28T00:53:27.446Z,98003.39
2019-04-28T00:57:32.331Z,98001.53
2019-04-28T01:01:38.852Z,98007.44
2019-04-28T01:05:43.743Z,98003.31
2019-04-28T01:09:48.635Z,98006.50
2019-04-28T01:13:53.525Z,98008.70
2019-04-28T01:18:00.731Z,98002.69
2019-04-28T01:22:10.390Z,98000.08
2019-04-28T01:26:16.475Z,98000.88
2019-04-28T01:30:40.127Z,98004.06
2019-04-28T01:34:45.120Z,98001.34
2019-04-28T01:38:50.176Z,98004.67
2019-04-28T01:42:55.077Z,98003.95
2019-04-28T01:47:01.180Z,98001.05
2019-04-28T01:51:06.118Z,98003.98
2019-04-28T01:55:11.077Z,97994.66
2019-04-28T01:59:17.029Z,98000.81
2019-04-28T02:03:21.914Z,98003.07
2019-04-28T02:07:26.793Z,98001.42
2019-04-28T02:11:31.679Z,98007.45
2019-04-28T02:15:36.567Z,98013.13
2019-04-28T02:19:41.454Z,98013.96
2019-04-28T02:23:46.344Z,98004.02
2019-04-28T02:27:51.219Z,98016.98
2019-04-28T02:31:56.110Z,98010.47
2019-04-28T02:36:01.606Z,98014.80
2019-04-28T02:40:07.005Z,98011.33
2019-04-28T02:44:11.897Z,98016.86
2019-04-28T02:48:21.377Z,98015.09
2019-04-28T02:52:30.635Z,98014.96
2019-04-28T02:56:34.506Z,98013.59
2019-04-28T03:00:41.193Z,98020.84
2019-04-28T03:04:46.344Z,98023.33
2019-04-28T03:08:51.228Z,98021.16
2019-04-28T03:12:56.109Z,98019.48
2019-04-28T03:17:01.042Z,98020.81
2019-04-28T03:21:05.961Z,98016.02
2019-04-28T03:25:12.555Z,98022.12
2019-04-28T03:29:21.788Z,98028.53
2019-04-28T03:33:32.910Z,98025.04
2019-04-28T03:37:34.909Z,98020.78
2019-04-28T03:41:40.925Z,98025.67
2019-04-28T03:45:53.404Z,98028.45
2019-04-28T03:50:00.097Z,98028.55
2019-04-28T03:54:04.865Z,98024.20
2019-04-28T03:58:10.471Z,98026.06
2019-04-28T04:02:15.522Z,98033.14
2019-04-28T04:06:22.670Z,98028.05
2019-04-28T04:10:32.186Z,98026.75
2019-04-28T04:14:41.069Z,98029.77
2019-04-28T04:18:46.924Z,98024.05
2019-04-28T04:22:51.814Z,98031.81
2019-04-28T04:26:56.696Z,98034.97
2019-04-28T04:31:03.274Z,98036.86
2019-04-28T04:35:10.393Z,98040.99
2019-04-28T04:39:14.925Z,98044.97
2019-04-28T04:43:23.043Z,98039.95
2019-04-28T04:47:26.396Z,98049.92
2019-04-28T04:51:31.284Z,98052.08
2019-04-28T04:55:36.163Z,98055.66
2019-04-28T04:59:41.050Z,98063.34
2019-04-28T05:03:50.477Z,98059.80
2019-04-28T05:07:55.368Z,98053.59
2019-04-28T05:12:00.270Z,98057.63
2019-04-28T05:16:05.138Z,98056.97
2019-04-28T05:20:10.091Z,98053.66
2019-04-28T05:24:34.731Z,98055.63
2019-04-28T05:28:44.039Z,98066.59
2019-04-28T05:32:55.404Z,98066.05
2019-04-28T05:36:52.806Z,98073.95
2019-04-28T05:40:57.680Z,98074.98
2019-04-28T05:45:02.576Z,98085.03
2019-04-28T05:49:10.285Z,98086.95
2019-04-28T05:53:22.796Z,98095.36
2019-04-28T05:57:30.563Z,98094.48
2019-04-28T06:01:37.216Z,98101.98
2019-04-28T06:05:42.102Z,98096.58
2019-04-28T06:09:50.089Z,98106.84
2019-04-28T06:13:55.028Z,98108.42
2019-04-28T06:18:00.175Z,98109.88
2019-04-28T06:22:05.088Z,98107.08
2019-04-28T06:26:10.001Z,98107.08
2019-04-28T06:30:15.113Z,98104.11
2019-04-28T06:34:20.007Z,98111.02
2019-04-28T06:38:24.902Z,98106.38
2019-04-28T06:42:30.763Z,98106.21
2019-04-28T06:46:36.628Z,98109.97
2019-04-28T06:50:41.516Z,98121.88
2019-04-28T06:54:46.411Z,98120.37
2019-04-28T06:58:58.852Z,98122.46
2019-04-28T07:02:57.888Z,98123.95
2019-04-28T07:07:02.793Z,98130.86
2019-04-28T07:11:07.688Z,98135.38
2019-04-28T07:15:12.661Z,98131.73
2019-04-28T07:19:17.554Z,98124.70
2019-04-28T07:23:22.511Z,98133.53
2019-04-28T07:27:27.406Z,98139.80
2019-04-28T07:31:32.302Z,98141.82
2019-04-28T07:35:37.203Z,98145.00
2019-04-28T07:39:42.096Z,98146.32
2019-04-28T07:43:46.988Z,98150.86
2019-04-28T07:47:51.885Z,98153.25
2019-04-28T07:52:01.165Z,98159.96
2019-04-28T07:56:06.045Z,98169.70
2019-04-28T08:00:13.718Z,98177.38
2019-04-28T08:04:18.620Z,98176.55
2019-04-28T08:08:23.519Z,98180.34
2019-04-28T08:12:28.411Z,98186.44
2019-04-28T08:16:33.314Z,98190.80
2019-04-28T08:20:38.220Z,98187.81
2019-04-28T08:24:43.119Z,98199.17
2019-04-28T08:28:48.001Z,98199.48
2019-04-28T08:32:59.992Z,98203.31
2019-04-28T08:37:04.962Z,98199.42
2019-04-28T08:41:09.862Z,98204.16
2019-04-28T08:45:14.900Z,98212.13
2019-04-28T08:49:19.796Z,98204.24
2019-04-28T08:53:24.687Z,98202.53
2019-04-28T08:57:29.589Z,98203.56
2019-04-28T09:01:34.487Z,98208.09
2019-04-28T09:05:39.384Z,98207.70
2019-04-28T09:09:44.323Z,98216.78
2019-04-28T09:13:49.168Z,98211.26
2019-04-28T09:17:54.060Z,98208.77
2019-04-28T09:21:59.802Z,98216.61
2019-04-28T09:26:04.967Z,98215.44
2019-04-28T09:30:10.000Z,98215.59
2019-04-28T09:34:27.589Z,98220.27
2019-04-28T09:38:22.469Z,98222.09
2019-04-28T09:42:32.431Z,98225.56
2019-04-28T09:46:38.969Z,98216.53
2019-04-28T09:50:43.863Z,98213.91
2019-04-28T09:54:48.777Z,98209.59
2019-04-28T09:58:53.658Z,98211.42
2019-04-28T10:02:58.557Z,98206.43
2019-04-28T10:07:03.524Z,98210.66
2019-04-28T10:11:08.482Z,98210.48
2019-04-28T10:15:13.793Z,98198.95
2019-04-28T10:19:18.689Z,98199.41
2019-04-28T10:23:23.593Z,98203.34
2019-04-28T10:27:28.486Z,98198.82
2019-04-28T10:31:33.388Z,98204.94
2019-04-28T10:35:38.272Z,98205.95
2019-04-28T10:39:47.753Z,98206.68
2019-04-28T10:43:52.648Z,98198.12
2019-04-28T10:47:57.884Z,98201.13
2019-04-28T10:52:02.788Z,98202.69
2019-04-28T10:56:07.666Z,98204.03
2019-04-28T11:00:13.187Z,98198.89
2019-04-28T11:04:25.871Z,98197.33
2019-04-28T11:08:32.469Z,98193.23
2019-04-28T11:12:37.313Z,98189.56
2019-04-28T11:16:42.271Z,98188.71
2019-04-28T11:20:47.170Z,98205.06
2019-04-28T11:24:52.078Z,98209.82
2019-04-28T11:28:56.978Z,98203.86
2019-04-28T11:33:03.512Z,98215.59
2019-04-28T11:37:08.400Z,98227.73
2019-04-28T11:41:13.365Z,98234.16
2019-04-28T11:45:18.268Z,98229.16
2019-04-28T11:49:23.240Z,98230.11
2019-04-28T11:53:28.142Z,98225.47
2019-04-28T11:57:33.027Z,98223.33
2019-04-28T12:01:39.006Z,98224.66
2019-04-28T12:05:45.561Z,98224.00
2019-04-28T12:10:03.735Z,98226.35
2019-04-28T12:14:12.595Z,98227.06
2019-04-28T12:18:35.632Z,98227.30
2019-04-28T12:22:40.534Z,98231.31
2019-04-28T12:26:45.421Z,98226.05
2019-04-28T12:30:50.388Z,98225.56
2019-04-28T12:34:55.281Z,98232.78
2019-04-28T12:39:00.243Z,98235.14
2019-04-28T12:43:05.138Z,98228.69
2019-04-28T12:47:10.034Z,98224.31
2019-04-28T12:51:14.938Z,98227.27
2019-04-28T12:55:19.832Z,98227.13
2019-04-28T12:59:26.362Z,98223.09
2019-04-28T13:03:44.589Z,98220.88
2019-04-28T13:07:49.483Z,98217.70
2019-04-28T13:11:54.375Z,98222.81
2019-04-28T13:15:59.275Z,98219.62
2019-04-28T13:20:05.309Z,98218.14
2019-04-28T13:24:10.192Z,98215.05
2019-04-28T13:28:15.088Z,98220.47
2019-04-28T13:32:19.980Z,98206.70
2019-04-28T13:36:24.882Z,98206.78
2019-04-28T13:40:37.233Z,98209.52
2019-04-28T13:44:49.947Z,98192.45
2019-04-28T13:48:54.844Z,98192.45
2019-04-28T13:52:59.744Z,98190.98
2019-04-28T13:57:04.636Z,98194.49
2019-04-28T14:01:11.175Z,98186.72
2019-04-28T14:05:17.701Z,98183.44
2019-04-28T14:09:22.603Z,98182.64
2019-04-28T14:13:27.502Z,98188.05
2019-04-28T14:17:32.394Z,98178.34
2019-04-28T14:21:37.286Z,98165.08
2019-04-28T14:25:42.178Z,98167.66
2019-04-28T14:29:47.092Z,98167.66
2019-04-28T14:33:51.981Z,98164.72
2019-04-28T14:37:56.875Z,98157.23
2019-04-28T14:42:01.772Z,98159.40
2019-04-28T14:46:06.661Z,98161.87
2019-04-28T14:50:12.736Z,98164.35
2019-04-28T14:54:17.591Z,98160.67
2019-04-28T14:58:22.471Z,98158.39
2019-04-28T15:02:35.088Z,98163.87
2019-04-28T15:06:55.352Z,98169.06
2019-04-28T15:10:58.780Z,98169.17
2019-04-28T15:15:05.653Z,98155.48
2019-04-28T15:19:10.621Z,98162.63
2019-04-28T15:23:15.511Z,98164.09
2019-04-28T15:27:20.417Z,98161.06
2019-04-28T15:31:25.314Z,98162.13
2019-04-28T15:35:30.200Z,98161.77
2019-04-28T15:39:35.100Z,98155.30
2019-04-28T15:43:40.002Z,98144.92
2019-04-28T15:47:44.898Z,98162.30
2019-04-28T15:51:49.781Z,98161.59
2019-04-28T15:55:59.458Z,98171.56
2019-04-28T16:00:08.174Z,98169.31
2019-04-28T16:04:13.071Z,98169.31
2019-04-28T16:08:18.139Z,98168.27
2019-04-28T16:12:23.031Z,98177.17
2019-04-28T16:16:27.963Z,98177.17
2019-04-28T16:20:32.820Z,98185.66
2019-04-28T16:24:37.726Z,98186.32
2019-04-28T16:28:42.618Z,98192.56
2019-04-28T16:32:47.514Z,98196.56
2019-04-28T16:36:52.404Z,98203.09
2019-04-28T16:40:57.303Z,98203.09
2019-04-28T16:45:02.206Z,98186.16
2019-04-28T16:49:07.095Z,98186.16
2019-04-28T16:53:11.991Z,98207.39
2019-04-28T16:57:33.877Z,98202.14
2019-04-28T17:01:55.672Z,98202.14
2019-04-28T17:06:00.568Z,98218.70
2019-04-28T17:10:06.813Z,98218.41
2019-04-28T17:14:11.707Z,98215.38
2019-04-28T17:18:16.610Z,98222.80
2019-04-28T17:22:21.492Z,98225.20
2019-04-28T17:26:26.554Z,98234.77
2019-04-28T17:30:31.454Z,98238.40
2019-04-28T17:34:36.343Z,98240.00
2019-04-28T17:38:41.321Z,98244.45
2019-04-28T17:42:46.230Z,98247.91
2019-04-28T17:46:51.175Z,98246.42
2019-04-28T17:50:56.087Z,98248.72
2019-04-28T17:55:00.983Z,98253.00
2019-04-28T17:59:07.141Z,98256.75
2019-04-28T18:03:16.393Z,98260.20
2019-04-28T18:07:31.790Z,98268.03
2019-04-28T18:11:37.057Z,98267.49
2019-04-28T18:15:58.876Z,98274.81
2019-04-28T18:20:04.551Z,98276.32
2019-04-28T18:24:11.031Z,98285.20
2019-04-28T18:28:15.922Z,98281.76
2019-04-28T18:32:31.321Z,98295.02
2019-04-28T18:36:47.221Z,98300.64
2019-04-28T18:40:53.828Z,98307.17
2019-04-28T18:44:59.782Z,98321.21
2019-04-28T18:49:04.677Z,98322.21
2019-04-28T18:53:09.573Z,98326.66
2019-04-28T18:57:14.603Z,98339.80
2019-04-28T19:01:21.145Z,98340.32
2019-04-28T19:05:27.682Z,98351.12
2019-04-28T19:09:34.216Z,98353.63
2019-04-28T19:13:40.755Z,98360.30
2019-04-28T19:17:49.862Z,98371.08
2019-04-28T19:21:55.930Z,98376.36
2019-04-28T19:26:00.823Z,98372.02
2019-04-28T19:30:06.549Z,98377.98
2019-04-28T19:34:11.618Z,98381.77
2019-04-28T19:38:16.520Z,98377.95
2019-04-28T19:42:21.405Z,98375.39
2019-04-28T19:46:26.295Z,98378.37
2019-04-28T19:50:31.171Z,98382.11
2019-04-28T19:54:37.698Z,98382.06
2019-04-28T19:58:44.230Z,98386.73
2019-04-28T20:02:49.116Z,98388.55
2019-04-28T20:06:53.998Z,98390.28
2019-04-28T20:10:58.887Z,98396.40
2019-04-28T20:15:06.835Z,98399.34
2019-04-28T20:19:11.726Z,98403.67
2019-04-28T20:23:16.683Z,98411.20
2019-04-28T20:27:21.570Z,98411.32
2019-04-28T20:31:26.445Z,98418.59
2019-04-28T20:35:35.927Z,98423.22
2019-04-28T20:39:40.884Z,98421.61
2019-04-28T20:43:45.768Z,98430.37
2019-04-28T20:47:50.653Z,98435.37
2019-04-28T20:51:56.613Z,98440.43
2019-04-28T20:56:01.484Z,98449.50
2019-04-28T21:00:08.087Z,98460.48
2019-04-28T21:04:14.575Z,98450.55
2019-04-28T21:08:19.466Z,98459.67
2019-04-28T21:12:24.344Z,98455.52
2019-04-28T21:16:29.222Z,98466.15
2019-04-28T21:20:34.124Z,98463.58
2019-04-28T21:24:39.005Z,98466.55
2019-04-28T21:28:43.891Z,98462.37
2019-04-28T21:32:48.778Z,98465.76
2019-04-28T21:36:53.660Z,98461.53
2019-04-28T21:40:58.545Z,98463.84
2019-04-28T21:45:21.510Z,98471.30
2019-04-28T21:49:28.034Z,98467.58
2019-04-28T21:53:33.005Z,98469.61
2019-04-28T21:57:37.875Z,98475.45
2019-04-28T22:01:44.070Z,98476.33
2019-04-28T22:05:48.960Z,98472.30
2019-04-28T22:09:53.850Z,98475.67
2019-04-28T22:13:58.733Z,98482.27
2019-04-28T22:18:03.618Z,98480.05
2019-04-28T22:22:08.560Z,98500.84
2019-04-28T22:26:15.034Z,98494.88
2019-04-28T22:30:19.991Z,98497.69
2019-04-28T22:34:24.879Z,98501.14
2019-04-28T22:38:29.752Z,98508.73
2019-04-28T22:42:34.641Z,98507.81
2019-04-28T22:46:39.537Z,98510.67
2019-04-28T22:50:46.831Z,98508.17
2019-04-28T22:54:53.364Z,98514.18
2019-04-28T22:59:18.217Z,98514.52
2019-04-28T23:03:24.802Z,98517.05
2019-04-28T23:07:30.658Z,98521.39
2019-04-28T23:11:36.055Z,98527.98
2019-04-28T23:15:41.922Z,98528.03
2019-04-28T23:19:46.874Z,98529.37
2019-04-28T23:23:51.819Z,98529.08
2019-04-28T23:27:56.701Z,98522.24
2019-04-28T23:32:01.588Z,98528.89
2019-04-28T23:36:06.474Z,98537.69
2019-04-28T23:40:13.765Z,98546.84
2019-04-28T23:44:18.651Z,98536.79
2019-04-28T23:48:23.534Z,98540.53
2019-04-28T23:52:33.115Z,98544.14
2019-04-28T23:56:38.000Z,98541.19
